sensor_id;sensor_type;location;lat;lon;timestamp;pressure;altitude;pressure_sealevel;temperature;humidity
47080;BME280;33067;49.296;14.470;2022-12-07T00:01:37;96761.01;;;5.31;47.53
47080;BME280;33067;49.296;14.470;2022-12-07T00:04:02;96757.78;;;5.37;46.91
47080;BME280;33067;49.296;14.470;2022-12-07T00:06:27;96757.29;;;5.15;47.82
47080;BME280;33067;49.296;14.470;2022-12-07T00:08:52;96755.16;;;5.23;47.04
47080;BME280;33067;49.296;14.470;2022-12-07T00:11:20;96753.28;;;5.05;48.09
47080;BME280;33067;49.296;14.470;2022-12-07T00:13:44;96752.58;;;4.87;47.82
47080;BME280;33067;49.296;14.470;2022-12-07T00:16:11;96750.64;;;5.64;47.11
47080;BME280;33067;49.296;14.470;2022-12-07T00:18:35;96749.74;;;5.49;47.35
47080;BME280;33067;49.296;14.470;2022-12-07T00:21:00;96749.88;;;4.96;48.01
47080;BME280;33067;49.296;14.470;2022-12-07T00:23:27;96750.28;;;4.73;48.47
47080;BME280;33067;49.296;14.470;2022-12-07T00:25:51;96746.97;;;5.24;47.65
47080;BME280;33067;49.296;14.470;2022-12-07T00:28:16;96746.48;;;5.33;47.31
47080;BME280;33067;49.296;14.470;2022-12-07T00:30:42;96743.07;;;5.60;47.29
47080;BME280;33067;49.296;14.470;2022-12-07T00:33:08;96740.19;;;5.52;47.05
47080;BME280;33067;49.296;14.470;2022-12-07T00:35:33;96739.61;;;5.68;47.22
47080;BME280;33067;49.296;14.470;2022-12-07T00:37:59;96738.83;;;5.62;46.87
47080;BME280;33067;49.296;14.470;2022-12-07T00:40:24;96734.14;;;5.77;46.74
47080;BME280;33067;49.296;14.470;2022-12-07T00:42:50;96731.26;;;5.93;46.08
47080;BME280;33067;49.296;14.470;2022-12-07T00:45:15;96734.09;;;5.61;46.03
47080;BME280;33067;49.296;14.470;2022-12-07T00:47:42;96737.37;;;5.71;46.42
47080;BME280;33067;49.296;14.470;2022-12-07T00:50:07;96739.40;;;5.38;46.16
47080;BME280;33067;49.296;14.470;2022-12-07T00:52:32;96740.86;;;5.32;46.50
47080;BME280;33067;49.296;14.470;2022-12-07T00:54:57;96740.37;;;5.58;46.81
47080;BME280;33067;49.296;14.470;2022-12-07T00:57:24;96738.81;;;5.44;46.43
47080;BME280;33067;49.296;14.470;2022-12-07T00:59:48;96738.57;;;5.63;46.88
47080;BME280;33067;49.296;14.470;2022-12-07T01:02:13;96737.27;;;5.29;46.51
47080;BME280;33067;49.296;14.470;2022-12-07T01:04:39;96739.03;;;5.48;46.75
47080;BME280;33067;49.296;14.470;2022-12-07T01:07:04;96741.60;;;5.51;46.43
47080;BME280;33067;49.296;14.470;2022-12-07T01:09:30;96742.42;;;5.36;46.91
47080;BME280;33067;49.296;14.470;2022-12-07T01:11:55;96744.35;;;5.31;46.64
47080;BME280;33067;49.296;14.470;2022-12-07T01:14:21;96745.70;;;5.28;47.23
47080;BME280;33067;49.296;14.470;2022-12-07T01:16:47;96747.88;;;5.18;47.24
47080;BME280;33067;49.296;14.470;2022-12-07T01:19:12;96750.42;;;5.50;46.63
47080;BME280;33067;49.296;14.470;2022-12-07T01:21:38;96748.80;;;5.24;47.24
47080;BME280;33067;49.296;14.470;2022-12-07T01:24:04;96750.88;;;5.64;47.18
47080;BME280;33067;49.296;14.470;2022-12-07T01:26:29;96748.53;;;4.96;47.29
47080;BME280;33067;49.296;14.470;2022-12-07T01:28:55;96745.54;;;5.10;47.40
47080;BME280;33067;49.296;14.470;2022-12-07T01:31:22;96744.04;;;5.05;48.01
47080;BME280;33067;49.296;14.470;2022-12-07T01:33:48;96742.08;;;5.05;47.15
47080;BME280;33067;49.296;14.470;2022-12-07T01:36:15;96743.46;;;4.68;48.08
47080;BME280;33067;49.296;14.470;2022-12-07T01:38:36;96742.43;;;4.95;47.76
47080;BME280;33067;49.296;14.470;2022-12-07T01:41:03;96742.87;;;4.64;48.28
47080;BME280;33067;49.296;14.470;2022-12-07T01:43:30;96740.09;;;4.96;48.13
47080;BME280;33067;49.296;14.470;2022-12-07T01:45:52;96735.09;;;5.03;47.67
47080;BME280;33067;49.296;14.470;2022-12-07T01:48:22;96735.89;;;4.59;48.59
47080;BME280;33067;49.296;14.470;2022-12-07T01:50:44;96732.47;;;5.23;47.22
47080;BME280;33067;49.296;14.470;2022-12-07T01:53:09;96734.90;;;4.95;47.67
47080;BME280;33067;49.296;14.470;2022-12-07T01:55:35;96739.52;;;4.63;48.34
47080;BME280;33067;49.296;14.470;2022-12-07T01:57:59;96737.96;;;5.29;46.96
47080;BME280;33067;49.296;14.470;2022-12-07T02:00:25;96736.33;;;5.16;47.16
47080;BME280;33067;49.296;14.470;2022-12-07T02:02:55;96735.00;;;4.91;47.72
47080;BME280;33067;49.296;14.470;2022-12-07T02:05:17;96734.44;;;5.17;47.43
47080;BME280;33067;49.296;14.470;2022-12-07T02:07:42;96731.72;;;4.78;47.91
47080;BME280;33067;49.296;14.470;2022-12-07T02:10:14;96730.82;;;4.85;47.36
47080;BME280;33067;49.296;14.470;2022-12-07T02:12:33;96736.28;;;4.88;47.11
47080;BME280;33067;49.296;14.470;2022-12-07T02:14:58;96734.17;;;4.65;48.32
47080;BME280;33067;49.296;14.470;2022-12-07T02:17:31;96730.28;;;4.76;47.69
47080;BME280;33067;49.296;14.470;2022-12-07T02:20:05;96730.13;;;4.71;48.01
47080;BME280;33067;49.296;14.470;2022-12-07T02:24:48;96737.10;;;4.62;48.19
47080;BME280;33067;49.296;14.470;2022-12-07T02:29:34;96740.41;;;3.78;49.65
47080;BME280;33067;49.296;14.470;2022-12-07T02:32:03;96738.88;;;3.97;49.32
47080;BME280;33067;49.296;14.470;2022-12-07T02:34:31;96732.76;;;4.98;48.16
47080;BME280;33067;49.296;14.470;2022-12-07T02:36:55;96729.45;;;4.52;48.01
47080;BME280;33067;49.296;14.470;2022-12-07T02:39:18;96729.98;;;4.86;48.50
47080;BME280;33067;49.296;14.470;2022-12-07T02:41:44;96729.81;;;3.82;49.71
47080;BME280;33067;49.296;14.470;2022-12-07T02:44:09;96724.97;;;4.11;48.77
47080;BME280;33067;49.296;14.470;2022-12-07T02:46:32;96728.26;;;4.11;48.81
47080;BME280;33067;49.296;14.470;2022-12-07T02:48:56;96728.20;;;4.24;48.98
47080;BME280;33067;49.296;14.470;2022-12-07T02:51:21;96728.24;;;4.42;48.88
47080;BME280;33067;49.296;14.470;2022-12-07T02:53:47;96727.36;;;4.21;48.95
47080;BME280;33067;49.296;14.470;2022-12-07T02:56:19;96720.28;;;4.48;47.99
47080;BME280;33067;49.296;14.470;2022-12-07T02:58:47;96720.34;;;4.32;48.33
47080;BME280;33067;49.296;14.470;2022-12-07T03:01:10;96717.93;;;4.38;48.39
47080;BME280;33067;49.296;14.470;2022-12-07T03:03:29;96723.15;;;4.30;48.09
47080;BME280;33067;49.296;14.470;2022-12-07T03:06:08;96723.85;;;4.47;47.92
47080;BME280;33067;49.296;14.470;2022-12-07T03:08:25;96723.07;;;4.07;48.48
47080;BME280;33067;49.296;14.470;2022-12-07T03:13:05;96716.59;;;4.26;48.02
47080;BME280;33067;49.296;14.470;2022-12-07T03:15:29;96714.01;;;4.26;48.04
47080;BME280;33067;49.296;14.470;2022-12-07T03:17:53;96716.02;;;4.25;48.02
47080;BME280;33067;49.296;14.470;2022-12-07T03:20:20;96722.18;;;3.97;48.74
47080;BME280;33067;49.296;14.470;2022-12-07T03:22:43;96718.92;;;4.37;47.70
47080;BME280;33067;49.296;14.470;2022-12-07T03:25:10;96719.99;;;5.00;47.26
47080;BME280;33067;49.296;14.470;2022-12-07T03:27:35;96718.68;;;4.37;47.79
47080;BME280;33067;49.296;14.470;2022-12-07T03:30:03;96717.38;;;4.25;48.17
47080;BME280;33067;49.296;14.470;2022-12-07T03:32:29;96715.16;;;4.42;47.58
47080;BME280;33067;49.296;14.470;2022-12-07T03:34:54;96713.98;;;4.63;47.36
47080;BME280;33067;49.296;14.470;2022-12-07T03:37:21;96710.31;;;4.51;47.56
47080;BME280;33067;49.296;14.470;2022-12-07T03:39:46;96705.88;;;4.73;47.12
47080;BME280;33067;49.296;14.470;2022-12-07T03:42:10;96700.84;;;4.93;46.83
47080;BME280;33067;49.296;14.470;2022-12-07T03:44:35;96701.11;;;4.52;47.34
47080;BME280;33067;49.296;14.470;2022-12-07T03:47:03;96699.36;;;4.74;46.97
47080;BME280;33067;49.296;14.470;2022-12-07T03:49:25;96693.09;;;4.60;47.19
47080;BME280;33067;49.296;14.470;2022-12-07T03:51:55;96694.17;;;4.69;46.73
47080;BME280;33067;49.296;14.470;2022-12-07T03:54:19;96694.41;;;5.06;46.39
47080;BME280;33067;49.296;14.470;2022-12-07T03:56:40;96692.88;;;4.71;47.06
47080;BME280;33067;49.296;14.470;2022-12-07T03:59:04;96689.47;;;4.89;46.39
47080;BME280;33067;49.296;14.470;2022-12-07T04:01:29;96687.48;;;4.76;46.40
47080;BME280;33067;49.296;14.470;2022-12-07T04:03:56;96686.07;;;5.11;45.86
47080;BME280;33067;49.296;14.470;2022-12-07T04:06:20;96687.07;;;5.21;46.15
47080;BME280;33067;49.296;14.470;2022-12-07T04:08:46;96685.92;;;4.91;46.83
47080;BME280;33067;49.296;14.470;2022-12-07T04:11:12;96683.64;;;5.32;46.29
47080;BME280;33067;49.296;14.470;2022-12-07T04:13:37;96682.08;;;5.40;45.99
47080;BME280;33067;49.296;14.470;2022-12-07T04:16:03;96683.29;;;5.45;46.04
47080;BME280;33067;49.296;14.470;2022-12-07T04:18:30;96684.36;;;5.40;46.21
47080;BME280;33067;49.296;14.470;2022-12-07T04:20:54;96681.34;;;5.17;45.84
47080;BME280;33067;49.296;14.470;2022-12-07T04:23:19;96677.99;;;5.38;45.45
47080;BME280;33067;49.296;14.470;2022-12-07T04:25:48;96677.37;;;5.93;45.16
47080;BME280;33067;49.296;14.470;2022-12-07T04:28:10;96676.33;;;5.79;44.83
47080;BME280;33067;49.296;14.470;2022-12-07T04:30:37;96676.76;;;5.56;45.07
47080;BME280;33067;49.296;14.470;2022-12-07T04:33:02;96678.66;;;5.44;45.65
47080;BME280;33067;49.296;14.470;2022-12-07T04:35:28;96681.52;;;5.35;45.85
47080;BME280;33067;49.296;14.470;2022-12-07T04:37:52;96673.86;;;5.53;45.58
47080;BME280;33067;49.296;14.470;2022-12-07T04:40:18;96670.42;;;5.62;45.46
47080;BME280;33067;49.296;14.470;2022-12-07T04:42:43;96669.18;;;5.46;45.27
47080;BME280;33067;49.296;14.470;2022-12-07T04:45:09;96669.15;;;5.90;44.97
47080;BME280;33067;49.296;14.470;2022-12-07T04:47:34;96664.23;;;5.81;44.77
47080;BME280;33067;49.296;14.470;2022-12-07T04:49:59;96663.80;;;5.84;44.77
47080;BME280;33067;49.296;14.470;2022-12-07T04:52:25;96661.58;;;5.84;44.57
47080;BME280;33067;49.296;14.470;2022-12-07T04:54:50;96657.79;;;5.79;44.30
47080;BME280;33067;49.296;14.470;2022-12-07T04:57:16;96656.86;;;5.62;44.53
47080;BME280;33067;49.296;14.470;2022-12-07T04:59:42;96657.30;;;5.80;44.55
47080;BME280;33067;49.296;14.470;2022-12-07T05:02:07;96653.45;;;5.52;44.50
47080;BME280;33067;49.296;14.470;2022-12-07T05:04:33;96651.29;;;5.72;44.42
47080;BME280;33067;49.296;14.470;2022-12-07T05:06:58;96650.30;;;5.55;44.51
47080;BME280;33067;49.296;14.470;2022-12-07T05:09:23;96651.46;;;5.79;44.35
47080;BME280;33067;49.296;14.470;2022-12-07T05:11:49;96652.75;;;6.09;44.29
47080;BME280;33067;49.296;14.470;2022-12-07T05:14:16;96657.60;;;5.86;44.11
47080;BME280;33067;49.296;14.470;2022-12-07T05:16:40;96663.38;;;5.80;44.18
47080;BME280;33067;49.296;14.470;2022-12-07T05:19:06;96662.82;;;5.90;44.22
47080;BME280;33067;49.296;14.470;2022-12-07T05:21:31;96659.71;;;6.34;43.86
47080;BME280;33067;49.296;14.470;2022-12-07T05:23:56;96665.31;;;6.04;44.35
47080;BME280;33067;49.296;14.470;2022-12-07T05:26:21;96663.96;;;6.35;43.88
47080;BME280;33067;49.296;14.470;2022-12-07T05:28:51;96667.79;;;6.43;43.82
47080;BME280;33067;49.296;14.470;2022-12-07T05:31:12;96670.58;;;6.26;43.52
47080;BME280;33067;49.296;14.470;2022-12-07T05:33:38;96669.82;;;6.41;43.92
47080;BME280;33067;49.296;14.470;2022-12-07T05:36:04;96672.54;;;5.95;44.24
47080;BME280;33067;49.296;14.470;2022-12-07T05:38:29;96669.53;;;6.00;44.09
47080;BME280;33067;49.296;14.470;2022-12-07T05:40:54;96667.85;;;6.43;43.58
47080;BME280;33067;49.296;14.470;2022-12-07T05:43:19;96669.85;;;6.27;43.65
47080;BME280;33067;49.296;14.470;2022-12-07T05:45:45;96668.98;;;6.45;43.42
47080;BME280;33067;49.296;14.470;2022-12-07T05:48:10;96666.20;;;6.27;43.18
47080;BME280;33067;49.296;14.470;2022-12-07T05:50:38;96668.97;;;6.11;43.49
47080;BME280;33067;49.296;14.470;2022-12-07T05:53:02;96671.53;;;5.92;43.41
47080;BME280;33067;49.296;14.470;2022-12-07T05:55:27;96669.62;;;5.71;44.14
47080;BME280;33067;49.296;14.470;2022-12-07T05:57:53;96669.19;;;5.79;44.12
47080;BME280;33067;49.296;14.470;2022-12-07T06:00:19;96668.90;;;5.80;44.13
47080;BME280;33067;49.296;14.470;2022-12-07T06:02:44;96670.77;;;6.03;43.67
47080;BME280;33067;49.296;14.470;2022-12-07T06:05:09;96667.60;;;6.00;43.37
47080;BME280;33067;49.296;14.470;2022-12-07T06:07:35;96669.29;;;5.50;43.84
47080;BME280;33067;49.296;14.470;2022-12-07T06:10:00;96669.03;;;5.54;44.28
47080;BME280;33067;49.296;14.470;2022-12-07T06:12:26;96680.72;;;5.33;44.57
47080;BME280;33067;49.296;14.470;2022-12-07T06:14:51;96679.71;;;5.11;44.52
47080;BME280;33067;49.296;14.470;2022-12-07T06:17:17;96676.94;;;5.03;44.22
47080;BME280;33067;49.296;14.470;2022-12-07T06:19:43;96676.95;;;5.27;43.70
47080;BME280;33067;49.296;14.470;2022-12-07T06:22:08;96682.06;;;5.14;44.66
47080;BME280;33067;49.296;14.470;2022-12-07T06:24:33;96682.40;;;5.00;44.38
47080;BME280;33067;49.296;14.470;2022-12-07T06:26:59;96679.92;;;5.72;43.66
47080;BME280;33067;49.296;14.470;2022-12-07T06:29:24;96678.59;;;5.20;43.93
47080;BME280;33067;49.296;14.470;2022-12-07T06:31:50;96674.31;;;5.41;43.66
47080;BME280;33067;49.296;14.470;2022-12-07T06:34:17;96676.22;;;5.45;43.52
47080;BME280;33067;49.296;14.470;2022-12-07T06:36:40;96680.61;;;5.24;43.58
47080;BME280;33067;49.296;14.470;2022-12-07T06:39:06;96682.87;;;5.05;43.94
47080;BME280;33067;49.296;14.470;2022-12-07T06:41:32;96685.40;;;5.14;43.86
47080;BME280;33067;49.296;14.470;2022-12-07T06:43:57;96688.37;;;5.23;43.80
47080;BME280;33067;49.296;14.470;2022-12-07T06:46:22;96683.19;;;5.33;43.70
47080;BME280;33067;49.296;14.470;2022-12-07T06:48:47;96683.70;;;5.49;43.83
47080;BME280;33067;49.296;14.470;2022-12-07T06:51:13;96681.87;;;5.69;43.50
47080;BME280;33067;49.296;14.470;2022-12-07T06:53:38;96682.60;;;5.27;43.85
47080;BME280;33067;49.296;14.470;2022-12-07T06:56:04;96685.53;;;5.50;43.57
47080;BME280;33067;49.296;14.470;2022-12-07T06:58:29;96685.47;;;5.65;43.00
47080;BME280;33067;49.296;14.470;2022-12-07T07:00:54;96689.50;;;5.71;42.90
47080;BME280;33067;49.296;14.470;2022-12-07T07:03:20;96689.48;;;5.90;43.14
47080;BME280;33067;49.296;14.470;2022-12-07T07:05:45;96690.85;;;5.67;42.94
47080;BME280;33067;49.296;14.470;2022-12-07T07:08:11;96689.83;;;5.65;43.02
47080;BME280;33067;49.296;14.470;2022-12-07T07:10:36;96692.65;;;5.64;43.35
47080;BME280;33067;49.296;14.470;2022-12-07T07:13:01;96693.99;;;5.40;43.13
47080;BME280;33067;49.296;14.470;2022-12-07T07:15:26;96697.05;;;5.41;43.47
47080;BME280;33067;49.296;14.470;2022-12-07T07:17:52;96700.49;;;5.59;43.61
47080;BME280;33067;49.296;14.470;2022-12-07T07:20:18;96700.93;;;5.57;43.80
47080;BME280;33067;49.296;14.470;2022-12-07T07:22:42;96696.29;;;5.85;43.32
47080;BME280;33067;49.296;14.470;2022-12-07T07:25:08;96692.89;;;5.81;42.86
47080;BME280;33067;49.296;14.470;2022-12-07T07:27:33;96693.65;;;5.31;43.35
47080;BME280;33067;49.296;14.470;2022-12-07T07:30:01;96695.99;;;5.70;43.23
47080;BME280;33067;49.296;14.470;2022-12-07T07:32:24;96697.54;;;5.61;43.22
47080;BME280;33067;49.296;14.470;2022-12-07T07:34:51;96696.54;;;5.65;43.27
47080;BME280;33067;49.296;14.470;2022-12-07T07:37:15;96697.24;;;6.03;42.85
47080;BME280;33067;49.296;14.470;2022-12-07T07:39:41;96700.75;;;5.49;43.18
47080;BME280;33067;49.296;14.470;2022-12-07T07:42:05;96700.95;;;5.47;43.04
47080;BME280;33067;49.296;14.470;2022-12-07T07:44:31;96699.92;;;5.83;43.15
47080;BME280;33067;49.296;14.470;2022-12-07T07:46:56;96697.64;;;5.98;42.93
47080;BME280;33067;49.296;14.470;2022-12-07T07:49:23;96701.11;;;5.93;42.74
47080;BME280;33067;49.296;14.470;2022-12-07T07:51:47;96698.22;;;6.11;42.86
47080;BME280;33067;49.296;14.470;2022-12-07T07:54:12;96696.55;;;5.91;42.76
47080;BME280;33067;49.296;14.470;2022-12-07T07:56:38;96700.15;;;5.99;43.01
47080;BME280;33067;49.296;14.470;2022-12-07T07:59:03;96705.20;;;6.21;42.57
47080;BME280;33067;49.296;14.470;2022-12-07T08:01:29;96706.67;;;6.21;42.35
47080;BME280;33067;49.296;14.470;2022-12-07T08:03:56;96711.12;;;5.81;42.54
47080;BME280;33067;49.296;14.470;2022-12-07T08:06:20;96710.41;;;6.10;42.58
47080;BME280;33067;49.296;14.470;2022-12-07T08:08:46;96711.55;;;6.06;42.23
47080;BME280;33067;49.296;14.470;2022-12-07T08:11:12;96711.67;;;5.90;42.52
47080;BME280;33067;49.296;14.470;2022-12-07T08:13:37;96714.31;;;5.96;42.52
47080;BME280;33067;49.296;14.470;2022-12-07T08:16:05;96714.08;;;6.18;42.45
47080;BME280;33067;49.296;14.470;2022-12-07T08:18:28;96717.61;;;5.96;42.34
47080;BME280;33067;49.296;14.470;2022-12-07T08:20:59;96726.77;;;5.53;43.01
47080;BME280;33067;49.296;14.470;2022-12-07T08:23:20;96732.19;;;5.58;42.91
47080;BME280;33067;49.296;14.470;2022-12-07T08:25:47;96732.53;;;6.05;42.78
47080;BME280;33067;49.296;14.470;2022-12-07T08:28:11;96731.44;;;6.02;42.34
47080;BME280;33067;49.296;14.470;2022-12-07T08:30:36;96730.66;;;6.19;42.57
47080;BME280;33067;49.296;14.470;2022-12-07T08:33:02;96732.45;;;5.91;42.41
47080;BME280;33067;49.296;14.470;2022-12-07T08:35:27;96731.53;;;6.02;42.32
47080;BME280;33067;49.296;14.470;2022-12-07T08:37:52;96728.49;;;5.76;42.54
47080;BME280;33067;49.296;14.470;2022-12-07T08:40:18;96729.66;;;6.21;42.47
47080;BME280;33067;49.296;14.470;2022-12-07T08:42:48;96727.31;;;6.34;41.99
47080;BME280;33067;49.296;14.470;2022-12-07T08:45:11;96724.74;;;6.42;42.16
47080;BME280;33067;49.296;14.470;2022-12-07T08:47:36;96724.26;;;6.64;42.09
47080;BME280;33067;49.296;14.470;2022-12-07T08:49:59;96726.69;;;6.74;42.17
47080;BME280;33067;49.296;14.470;2022-12-07T08:52:24;96737.89;;;6.57;42.07
47080;BME280;33067;49.296;14.470;2022-12-07T08:54:50;96739.84;;;6.39;42.07
47080;BME280;33067;49.296;14.470;2022-12-07T08:57:15;96742.30;;;6.02;41.72
47080;BME280;33067;49.296;14.470;2022-12-07T08:59:41;96744.01;;;5.76;41.94
47080;BME280;33067;49.296;14.470;2022-12-07T09:02:06;96741.11;;;6.21;41.58
47080;BME280;33067;49.296;14.470;2022-12-07T09:04:32;96742.47;;;6.18;41.60
47080;BME280;33067;49.296;14.470;2022-12-07T09:06:58;96738.75;;;6.10;41.87
47080;BME280;33067;49.296;14.470;2022-12-07T09:09:22;96735.42;;;6.02;41.83
47080;BME280;33067;49.296;14.470;2022-12-07T09:11:48;96735.05;;;5.95;41.70
47080;BME280;33067;49.296;14.470;2022-12-07T09:14:14;96729.46;;;6.24;41.44
47080;BME280;33067;49.296;14.470;2022-12-07T09:16:40;96729.54;;;5.75;42.17
47080;BME280;33067;49.296;14.470;2022-12-07T09:19:04;96730.28;;;6.34;41.51
47080;BME280;33067;49.296;14.470;2022-12-07T09:21:30;96728.65;;;6.35;40.90
47080;BME280;33067;49.296;14.470;2022-12-07T09:23:56;96722.61;;;6.73;40.08
47080;BME280;33067;49.296;14.470;2022-12-07T09:26:20;96723.43;;;6.74;40.10
47080;BME280;33067;49.296;14.470;2022-12-07T09:28:45;96723.84;;;6.60;40.28
47080;BME280;33067;49.296;14.470;2022-12-07T09:31:10;96718.54;;;6.69;40.19
47080;BME280;33067;49.296;14.470;2022-12-07T09:33:36;96717.92;;;6.49;40.20
47080;BME280;33067;49.296;14.470;2022-12-07T09:36:01;96713.24;;;6.38;40.75
47080;BME280;33067;49.296;14.470;2022-12-07T09:38:26;96716.86;;;6.46;40.12
47080;BME280;33067;49.296;14.470;2022-12-07T09:40:53;96711.12;;;6.49;39.91
47080;BME280;33067;49.296;14.470;2022-12-07T09:43:19;96711.63;;;5.87;39.93
47080;BME280;33067;49.296;14.470;2022-12-07T09:45:44;96701.45;;;6.35;40.10
47080;BME280;33067;49.296;14.470;2022-12-07T09:48:14;96702.07;;;6.69;39.23
47080;BME280;33067;49.296;14.470;2022-12-07T09:50:33;96699.48;;;6.52;38.76
47080;BME280;33067;49.296;14.470;2022-12-07T09:53:05;96694.68;;;6.41;38.87
47080;BME280;33067;49.296;14.470;2022-12-07T09:55:27;96688.47;;;6.13;39.49
47080;BME280;33067;49.296;14.470;2022-12-07T09:57:50;96689.23;;;6.34;39.20
47080;BME280;33067;49.296;14.470;2022-12-07T10:00:19;96685.40;;;6.41;38.85
47080;BME280;33067;49.296;14.470;2022-12-07T10:02:42;96682.11;;;5.81;39.06
47080;BME280;33067;49.296;14.470;2022-12-07T10:05:10;96681.92;;;5.92;39.58
47080;BME280;33067;49.296;14.470;2022-12-07T10:07:31;96680.11;;;6.46;38.78
47080;BME280;33067;49.296;14.470;2022-12-07T10:09:57;96678.27;;;6.19;39.24
47080;BME280;33067;49.296;14.470;2022-12-07T10:12:21;96678.43;;;6.10;38.58
47080;BME280;33067;49.296;14.470;2022-12-07T10:14:53;96679.12;;;6.29;38.97
47080;BME280;33067;49.296;14.470;2022-12-07T10:19:37;96678.96;;;5.47;40.27
47080;BME280;33067;49.296;14.470;2022-12-07T10:22:07;96675.69;;;6.11;39.68
47080;BME280;33067;49.296;14.470;2022-12-07T10:24:28;96669.66;;;6.17;39.53
47080;BME280;33067;49.296;14.470;2022-12-07T10:26:54;96667.84;;;6.11;39.38
47080;BME280;33067;49.296;14.470;2022-12-07T10:29:23;96671.84;;;5.91;39.34
47080;BME280;33067;49.296;14.470;2022-12-07T10:31:45;96669.78;;;4.76;39.97
47080;BME280;33067;49.296;14.470;2022-12-07T10:34:20;96671.02;;;5.76;39.47
47080;BME280;33067;49.296;14.470;2022-12-07T10:36:38;96665.15;;;5.47;39.93
47080;BME280;33067;49.296;14.470;2022-12-07T10:39:03;96666.66;;;5.61;39.99
47080;BME280;33067;49.296;14.470;2022-12-07T10:41:27;96668.20;;;5.47;40.31
47080;BME280;33067;49.296;14.470;2022-12-07T10:43:54;96670.67;;;6.08;39.90
47080;BME280;33067;49.296;14.470;2022-12-07T10:46:32;96670.70;;;5.99;39.19
47080;BME280;33067;49.296;14.470;2022-12-07T10:48:46;96669.87;;;5.67;40.13
47080;BME280;33067;49.296;14.470;2022-12-07T10:51:15;96664.64;;;6.19;39.29
47080;BME280;33067;49.296;14.470;2022-12-07T10:53:41;96671.74;;;4.84;41.67
47080;BME280;33067;49.296;14.470;2022-12-07T10:56:23;96666.87;;;5.10;41.68
47080;BME280;33067;49.296;14.470;2022-12-07T11:00:56;96663.96;;;5.28;42.02
47080;BME280;33067;49.296;14.470;2022-12-07T11:03:30;96660.52;;;4.72;42.80
47080;BME280;33067;49.296;14.470;2022-12-07T11:05:47;96665.53;;;4.40;42.75
47080;BME280;33067;49.296;14.470;2022-12-07T11:08:17;96664.36;;;4.52;42.11
47080;BME280;33067;49.296;14.470;2022-12-07T11:10:39;96662.84;;;4.76;42.35
47080;BME280;33067;49.296;14.470;2022-12-07T11:13:07;96660.03;;;5.06;41.98
47080;BME280;33067;49.296;14.470;2022-12-07T11:15:26;96659.02;;;4.53;42.71
47080;BME280;33067;49.296;14.470;2022-12-07T11:17:53;96655.77;;;4.89;41.73
47080;BME280;33067;49.296;14.470;2022-12-07T11:20:27;96654.91;;;4.43;41.98
47080;BME280;33067;49.296;14.470;2022-12-07T11:22:45;96651.91;;;4.68;41.77
47080;BME280;33067;49.296;14.470;2022-12-07T11:27:35;96660.17;;;5.17;41.09
47080;BME280;33067;49.296;14.470;2022-12-07T11:30:10;96659.37;;;4.44;42.53
47080;BME280;33067;49.296;14.470;2022-12-07T11:32:25;96656.46;;;4.32;40.36
47080;BME280;33067;49.296;14.470;2022-12-07T11:34:56;96657.13;;;5.86;39.68
47080;BME280;33067;49.296;14.470;2022-12-07T11:37:15;96654.32;;;5.39;39.91
47080;BME280;33067;49.296;14.470;2022-12-07T11:39:41;96653.51;;;5.68;40.05
47080;BME280;33067;49.296;14.470;2022-12-07T11:42:08;96648.67;;;5.71;39.73
47080;BME280;33067;49.296;14.470;2022-12-07T11:44:34;96654.78;;;5.87;39.92
47080;BME280;33067;49.296;14.470;2022-12-07T11:47:00;96655.01;;;5.12;40.66
47080;BME280;33067;49.296;14.470;2022-12-07T11:49:26;96655.32;;;5.37;40.53
47080;BME280;33067;49.296;14.470;2022-12-07T11:51:50;96653.63;;;5.06;40.88
47080;BME280;33067;49.296;14.470;2022-12-07T11:54:16;96651.20;;;5.07;40.93
47080;BME280;33067;49.296;14.470;2022-12-07T11:56:36;96648.75;;;5.16;40.90
47080;BME280;33067;49.296;14.470;2022-12-07T11:59:06;96641.62;;;5.94;39.87
47080;BME280;33067;49.296;14.470;2022-12-07T12:01:41;96643.79;;;5.63;40.80
47080;BME280;33067;49.296;14.470;2022-12-07T12:03:55;96643.36;;;6.05;40.16
47080;BME280;33067;49.296;14.470;2022-12-07T12:06:17;96642.89;;;5.52;40.61
47080;BME280;33067;49.296;14.470;2022-12-07T12:08:45;96644.02;;;5.01;41.56
47080;BME280;33067;49.296;14.470;2022-12-07T12:11:17;96637.31;;;5.29;41.18
47080;BME280;33067;49.296;14.470;2022-12-07T12:13:52;96639.12;;;5.61;40.97
47080;BME280;33067;49.296;14.470;2022-12-07T12:16:12;96643.28;;;5.25;41.59
47080;BME280;33067;49.296;14.470;2022-12-07T12:20:52;96642.96;;;5.48;40.88
47080;BME280;33067;49.296;14.470;2022-12-07T12:23:18;96642.13;;;5.87;40.31
47080;BME280;33067;49.296;14.470;2022-12-07T12:25:43;96645.23;;;6.12;40.14
47080;BME280;33067;49.296;14.470;2022-12-07T12:28:15;96644.63;;;6.12;40.86
47080;BME280;33067;49.296;14.470;2022-12-07T12:30:34;96644.06;;;5.41;41.04
47080;BME280;33067;49.296;14.470;2022-12-07T12:33:03;96646.60;;;5.53;40.75
47080;BME280;33067;49.296;14.470;2022-12-07T12:35:30;96644.12;;;6.21;40.74
47080;BME280;33067;49.296;14.470;2022-12-07T12:37:48;96652.04;;;4.94;42.77
47080;BME280;33067;49.296;14.470;2022-12-07T12:42:45;96645.67;;;5.57;42.19
47080;BME280;33067;49.296;14.470;2022-12-07T12:45:19;96644.21;;;5.96;41.57
47080;BME280;33067;49.296;14.470;2022-12-07T12:47:40;96643.46;;;5.96;41.31
47080;BME280;33067;49.296;14.470;2022-12-07T12:57:15;96647.18;;;5.72;41.49
47080;BME280;33067;49.296;14.470;2022-12-07T12:59:36;96647.14;;;5.65;41.97
47080;BME280;33067;49.296;14.470;2022-12-07T13:02:14;96645.67;;;5.83;41.72
47080;BME280;33067;49.296;14.470;2022-12-07T13:04:40;96644.44;;;5.92;41.89
47080;BME280;33067;49.296;14.470;2022-12-07T13:06:53;96641.61;;;6.31;41.10
47080;BME280;33067;49.296;14.470;2022-12-07T13:09:21;96642.41;;;6.34;40.95
47080;BME280;33067;49.296;14.470;2022-12-07T13:11:45;96639.83;;;6.04;41.25
47080;BME280;33067;49.296;14.470;2022-12-07T13:16:39;96637.61;;;6.49;40.58
47080;BME280;33067;49.296;14.470;2022-12-07T13:18:59;96638.06;;;6.65;40.35